Flight Track Log - Related Links

Times and Time Zones

All times are in EDT time to prevent confusion due to time zone crossing. See the N486QS flight status page for this flight to view local times or setup timezone preferences in your user account.

Time Position Orientation Groundspeed Altitude Reporting Facility
EDT Latitude Longitude Course Direction KTS MPH feet Rate Location/Type
Wed 09:43:43 PM 41.0333 -73.7500 224° Southwest 206 237 2,000  Level New York TRACON
Wed 09:44:43 PM 41.0833 -73.8167 315° West 268 308 4,500 3,378 Climbing New York TRACON
Wed 09:45:42 PM 41.1500 -73.8500 339° North 298 343 8,700 2,269 Climbing New York TRACON
Wed 09:46:42 PM 41.2000 -73.7667 51° Northeast 289 333 9,000 150 Climbing New York TRACON
Wed 09:47:42 PM 41.2333 -73.6833 62° Northeast 284 327 9,000  Level New York TRACON
Wed 09:48:43 PM 41.2833 -73.5833 56° Northeast 293 337 9,000  Level New York TRACON
Wed 09:49:42 PM 41.3167 -73.5000 62° Northeast 295 339 9,000  Level New York TRACON
Wed 09:50:43 PM 41.3500 -73.4000 66° East 289 333 9,000  Level New York TRACON
Wed 09:51:13 PM 41.3608 -73.3500 74° East 289 333 9,000  Level Boston Center
Wed 09:51:43 PM 41.3800 -73.3006 63° Northeast 289 333 9,000  Level Boston Center
Wed 09:52:38 PM 41.4119 -73.2122 64° Northeast 288 331 9,000  Level Boston Center
Wed 09:53:39 PM 41.4481 -73.1186 63° Northeast 290 334 9,000  Level Boston Center
Wed 09:54:39 PM 41.5047 -73.0361 47° Northeast 294 338 9,000  Level Boston Center
Wed 09:55:46 PM 41.5656 -72.9478 47° Northeast 297 342 9,000  Level Boston Center
Wed 09:56:47 PM 41.6203 -72.8678 48° Northeast 299 344 9,000  Level Boston Center
Wed 09:57:41 PM 41.6703 -72.7931 48° Northeast 298 343 9,000  Level Boston Center
Wed 09:58:42 PM 41.7269 -72.7072 48° Northeast 297 342 9,000 469 Level Boston Center
Wed 09:59:49 PM 41.7856 -72.6183 48° Northeast 298 343 10,000 472 Climbing Boston Center
Wed 10:00:49 PM 41.8522 -72.5208 47° Northeast 352 405 10,000  Level Boston Center
Wed 10:01:50 PM 41.9189 -72.4206 48° Northeast 361 415 10,000  Level Boston Center
Wed 10:02:50 PM 41.9856 -72.3172 49° Northeast 359 413 10,000  Level Boston Center
Wed 10:03:45 PM 42.0458 -72.2247 49° Northeast 360 414 10,000  Level Boston Center
Wed 10:04:46 PM 42.1122 -72.1267 48° Northeast 356 410 10,000 -397 Level Boston Center
Wed 10:05:46 PM 42.1706 -72.0394 48° Northeast 296 341 9,200 -1,370 Descending Boston Center
Wed 10:06:53 PM 42.2244 -71.9578 48° Northeast 275 316 7,100 -1,528 Descending Boston Center
Wed 10:08:27 PM 42.3167 -71.8167 49° Northeast 277 319 5,100 -769 Descending KA90
Wed 10:09:29 PM 42.3667 -71.7500 45° Northeast 273 314 5,100  Level KA90
Wed 10:10:21 PM 42.4000 -71.6833 56° Northeast 261 300 5,100 -857 Level KA90
Wed 10:11:21 PM 42.4500 -71.6167 45° Northeast 249 287 3,500 -1,050 Descending KA90
Wed 10:12:21 PM 42.4833 -71.5500 56° Northeast 231 266 3,000 -466 Descending KA90
Wed 10:13:17 PM 42.4833 -71.4833 90° East 175 201 2,600 -462 Descending KA90
Wed 10:14:18 PM 42.4833 -71.4333 90° East 158 182 2,100 -667 Descending KA90
Wed 10:15:32 PM 42.4833 -71.3500 90° East 142 163 1,100 -811 Descending KA90
Wed 10:17:00 PM 42.4667 -71.2833 129° Southeast  Level FlightAware Approximate
Wed 10:24:00 PM 42.4699 -71.2890 129° Southeast  Level Estimated

Login

Don't have an account? Register now (free) for customized features, flight alerts, and more!